Time;durP1;ratioP1;P1;durP2;ratioP2;P2;SDS_P1;SDS_P2;PMS_P1;PMS_P2;Temp;Humidity;BMP_temperature;BMP_pressure;BME280_temperature;BME280_humidity;BME280_pressure;Samples;Min_cycle;Max_cycle;Signal;HPM_P1;HPM_P2
2024/02/25 00:00:47;;;;;;;7.1;4.6;;;;;;;;;;;;;
2024/02/25 00:03:12;;;;;;;7;4.4;;;;;;;;;;;;;
2024/02/25 00:05:39;;;;;;;6.8;4.8;;;;;;;;;;;;;
2024/02/25 00:08:02;;;;;;;5.8;3.9;;;;;;;;;;;;;
2024/02/25 00:10:27;;;;;;;5.8;3.7;;;;;;;;;;;;;
2024/02/25 00:12:52;;;;;;;5.2;3.2;;;;;;;;;;;;;
2024/02/25 00:15:17;;;;;;;4.6;2.7;;;;;;;;;;;;;
2024/02/25 00:17:42;;;;;;;3.5;2.5;;;;;;;;;;;;;
2024/02/25 00:20:07;;;;;;;3.7;2.8;;;;;;;;;;;;;
2024/02/25 00:22:33;;;;;;;3.8;2.5;;;;;;;;;;;;;
2024/02/25 00:24:58;;;;;;;4;2.5;;;;;;;;;;;;;
2024/02/25 00:27:23;;;;;;;3.5;2.5;;;;;;;;;;;;;
2024/02/25 00:29:48;;;;;;;4.1;2.8;;;;;;;;;;;;;
2024/02/25 00:32:14;;;;;;;4.5;3.1;;;;;;;;;;;;;
2024/02/25 00:34:38;;;;;;;4.8;3.3;;;;;;;;;;;;;
2024/02/25 00:37:03;;;;;;;6;3.3;;;;;;;;;;;;;
2024/02/25 00:39:28;;;;;;;4.9;3.3;;;;;;;;;;;;;
2024/02/25 00:41:56;;;;;;;4.8;3.2;;;;;;;;;;;;;
2024/02/25 00:44:19;;;;;;;5.1;3.1;;;;;;;;;;;;;
2024/02/25 00:46:46;;;;;;;5.1;3;;;;;;;;;;;;;
2024/02/25 00:49:09;;;;;;;5.5;3.1;;;;;;;;;;;;;
2024/02/25 00:51:34;;;;;;;5.4;2.8;;;;;;;;;;;;;
2024/02/25 00:54:00;;;;;;;5.7;3;;;;;;;;;;;;;
2024/02/25 00:56:24;;;;;;;3.7;2.4;;;;;;;;;;;;;
2024/02/25 00:58:50;;;;;;;3;2.3;;;;;;;;;;;;;
2024/02/25 01:01:16;;;;;;;3.3;2.3;;;;;;;;;;;;;
2024/02/25 01:03:40;;;;;;;2.6;1.9;;;;;;;;;;;;;
2024/02/25 01:06:05;;;;;;;3.3;2.6;;;;;;;;;;;;;
2024/02/25 01:08:30;;;;;;;3.1;2.3;;;;;;;;;;;;;
2024/02/25 01:10:55;;;;;;;4.1;2.3;;;;;;;;;;;;;
2024/02/25 01:13:20;;;;;;;3.3;2.6;;;;;;;;;;;;;
2024/02/25 01:15:46;;;;;;;3.9;2.4;;;;;;;;;;;;;
2024/02/25 01:18:11;;;;;;;4.8;3.3;;;;;;;;;;;;;
2024/02/25 01:20:36;;;;;;;2.8;2.2;;;;;;;;;;;;;
2024/02/25 01:23:01;;;;;;;3.1;1.8;;;;;;;;;;;;;
2024/02/25 01:25:26;;;;;;;2.1;1.5;;;;;;;;;;;;;
2024/02/25 01:27:51;;;;;;;3.3;1.7;;;;;;;;;;;;;
2024/02/25 01:30:16;;;;;;;2.8;1.8;;;;;;;;;;;;;
2024/02/25 01:32:41;;;;;;;3.8;2.3;;;;;;;;;;;;;
2024/02/25 01:35:06;;;;;;;2.7;2.1;;;;;;;;;;;;;
2024/02/25 01:37:32;;;;;;;4;2.6;;;;;;;;;;;;;
2024/02/25 01:39:56;;;;;;;3.4;2.5;;;;;;;;;;;;;
2024/02/25 01:42:22;;;;;;;3.4;2.7;;;;;;;;;;;;;
2024/02/25 01:44:47;;;;;;;2.7;2.2;;;;;;;;;;;;;
2024/02/25 01:47:12;;;;;;;3.3;2.2;;;;;;;;;;;;;
2024/02/25 01:49:37;;;;;;;3.5;2.5;;;;;;;;;;;;;
2024/02/25 01:52:02;;;;;;;3.3;2.6;;;;;;;;;;;;;
2024/02/25 01:54:28;;;;;;;4;2.8;;;;;;;;;;;;;
2024/02/25 01:56:53;;;;;;;3.3;2.5;;;;;;;;;;;;;
2024/02/25 01:59:18;;;;;;;3.4;2.3;;;;;;;;;;;;;
2024/02/25 02:01:43;;;;;;;2.9;2;;;;;;;;;;;;;
2024/02/25 02:04:08;;;;;;;2.5;2.2;;;;;;;;;;;;;
2024/02/25 02:06:33;;;;;;;3.9;2.5;;;;;;;;;;;;;
2024/02/25 02:08:58;;;;;;;3.2;2.6;;;;;;;;;;;;;
2024/02/25 02:11:26;;;;;;;2.9;2.5;;;;;;;;;;;;;
2024/02/25 02:13:49;;;;;;;3.4;2.6;;;;;;;;;;;;;
2024/02/25 02:16:15;;;;;;;3.1;2;;;;;;;;;;;;;
2024/02/25 02:18:39;;;;;;;3.4;2.2;;;;;;;;;;;;;
2024/02/25 02:21:04;;;;;;;2.7;2.1;;;;;;;;;;;;;
2024/02/25 02:23:29;;;;;;;2.7;2.1;;;;;;;;;;;;;
2024/02/25 02:25:54;;;;;;;2.7;2;;;;;;;;;;;;;
2024/02/25 02:28:19;;;;;;;2.3;2;;;;;;;;;;;;;
2024/02/25 02:30:44;;;;;;;3.2;2;;;;;;;;;;;;;
2024/02/25 02:33:09;;;;;;;4.4;2.4;;;;;;;;;;;;;
2024/02/25 02:35:34;;;;;;;2.9;2.5;;;;;;;;;;;;;
2024/02/25 02:37:59;;;;;;;3.3;2.5;;;;;;;;;;;;;
2024/02/25 02:40:25;;;;;;;3.2;2.5;;;;;;;;;;;;;
2024/02/25 02:42:52;;;;;;;2.4;1.9;;;;;;;;;;;;;
2024/02/25 02:45:15;;;;;;;2.3;2.1;;;;;;;;;;;;;
2024/02/25 02:47:40;;;;;;;3.5;2;;;;;;;;;;;;;
2024/02/25 02:50:05;;;;;;;2;1.8;;;;;;;;;;;;;
2024/02/25 02:52:30;;;;;;;3.7;2.1;;;;;;;;;;;;;
2024/02/25 02:54:55;;;;;;;3.3;2.3;;;;;;;;;;;;;
2024/02/25 02:57:20;;;;;;;2.9;2;;;;;;;;;;;;;
2024/02/25 02:59:45;;;;;;;3.1;2.3;;;;;;;;;;;;;
2024/02/25 03:02:10;;;;;;;2.8;2.2;;;;;;;;;;;;;
2024/02/25 03:04:35;;;;;;;3.2;2.2;;;;;;;;;;;;;
2024/02/25 03:07:01;;;;;;;3.3;2.3;;;;;;;;;;;;;
2024/02/25 03:09:26;;;;;;;3.2;2.3;;;;;;;;;;;;;
2024/02/25 03:11:51;;;;;;;2.6;2.1;;;;;;;;;;;;;
2024/02/25 03:14:16;;;;;;;2.5;2.1;;;;;;;;;;;;;
2024/02/25 03:16:41;;;;;;;2.5;1.9;;;;;;;;;;;;;
2024/02/25 03:19:06;;;;;;;3.3;2.3;;;;;;;;;;;;;
2024/02/25 03:21:31;;;;;;;3.5;2.1;;;;;;;;;;;;;
2024/02/25 03:23:57;;;;;;;3.2;1.8;;;;;;;;;;;;;
2024/02/25 03:26:22;;;;;;;3.3;2;;;;;;;;;;;;;
2024/02/25 03:28:47;;;;;;;2.3;1.7;;;;;;;;;;;;;
2024/02/25 03:31:12;;;;;;;2.5;1.8;;;;;;;;;;;;;
2024/02/25 03:33:37;;;;;;;2.4;1.8;;;;;;;;;;;;;
2024/02/25 03:36:02;;;;;;;6.7;2.8;;;;;;;;;;;;;
2024/02/25 03:38:27;;;;;;;8.1;3.3;;;;;;;;;;;;;
2024/02/25 03:40:52;;;;;;;10.2;4;;;;;;;;;;;;;
2024/02/25 03:43:18;;;;;;;6.6;3.2;;;;;;;;;;;;;
2024/02/25 03:45:43;;;;;;;5.5;3.5;;;;;;;;;;;;;
2024/02/25 03:48:08;;;;;;;3.9;3;;;;;;;;;;;;;
2024/02/25 03:50:33;;;;;;;5.2;3.8;;;;;;;;;;;;;
2024/02/25 03:52:58;;;;;;;6.8;5.4;;;;;;;;;;;;;
2024/02/25 03:55:24;;;;;;;5;2.9;;;;;;;;;;;;;
2024/02/25 03:57:49;;;;;;;2.3;1.8;;;;;;;;;;;;;
2024/02/25 04:02:31;;;;;;;1.8;1.7;;;;;;;;;;;;;
2024/02/25 04:04:56;;;;;;;2.2;1.6;;;;;;;;;;;;;
2024/02/25 04:07:21;;;;;;;1.8;1.3;;;;;;;;;;;;;
2024/02/25 04:09:46;;;;;;;2.4;1.5;;;;;;;;;;;;;
2024/02/25 04:12:11;;;;;;;1.6;1.5;;;;;;;;;;;;;
2024/02/25 04:14:36;;;;;;;2.8;1.7;;;;;;;;;;;;;
2024/02/25 04:17:01;;;;;;;2;1.6;;;;;;;;;;;;;
2024/02/25 04:19:26;;;;;;;1.7;1.6;;;;;;;;;;;;;
2024/02/25 04:21:51;;;;;;;2.3;1.7;;;;;;;;;;;;;
2024/02/25 04:24:17;;;;;;;1.9;1.4;;;;;;;;;;;;;
2024/02/25 04:26:42;;;;;;;2.1;1.6;;;;;;;;;;;;;
2024/02/25 04:29:07;;;;;;;4.2;1.8;;;;;;;;;;;;;
2024/02/25 04:31:32;;;;;;;2.2;1.7;;;;;;;;;;;;;
2024/02/25 04:33:57;;;;;;;1.9;1.6;;;;;;;;;;;;;
2024/02/25 04:36:22;;;;;;;2.6;1.9;;;;;;;;;;;;;
2024/02/25 04:38:48;;;;;;;2.6;1.9;;;;;;;;;;;;;
2024/02/25 04:41:13;;;;;;;4.4;2.5;;;;;;;;;;;;;
2024/02/25 04:43:38;;;;;;;4.4;2.5;;;;;;;;;;;;;
2024/02/25 04:46:03;;;;;;;3.3;2.4;;;;;;;;;;;;;
2024/02/25 04:48:28;;;;;;;3.7;2.3;;;;;;;;;;;;;
2024/02/25 04:50:55;;;;;;;3.4;2.5;;;;;;;;;;;;;
2024/02/25 04:53:18;;;;;;;3.9;2.3;;;;;;;;;;;;;
2024/02/25 04:55:43;;;;;;;2;1.6;;;;;;;;;;;;;
2024/02/25 04:58:09;;;;;;;2.1;1.6;;;;;;;;;;;;;
2024/02/25 05:00:34;;;;;;;3.3;1.4;;;;;;;;;;;;;
2024/02/25 05:03:01;;;;;;;1.6;1.5;;;;;;;;;;;;;
2024/02/25 05:05:24;;;;;;;2.2;1.6;;;;;;;;;;;;;
2024/02/25 05:07:49;;;;;;;2;1.6;;;;;;;;;;;;;
2024/02/25 05:10:14;;;;;;;1.8;1.6;;;;;;;;;;;;;
2024/02/25 05:12:39;;;;;;;2.1;1.8;;;;;;;;;;;;;
2024/02/25 05:15:04;;;;;;;2.9;2;;;;;;;;;;;;;
2024/02/25 05:17:29;;;;;;;3.5;2.4;;;;;;;;;;;;;
2024/02/25 05:19:54;;;;;;;4;2.6;;;;;;;;;;;;;
2024/02/25 05:22:19;;;;;;;3.1;2.5;;;;;;;;;;;;;
2024/02/25 05:24:46;;;;;;;3;2.1;;;;;;;;;;;;;
2024/02/25 05:27:10;;;;;;;2.6;1.9;;;;;;;;;;;;;
2024/02/25 05:29:35;;;;;;;2.3;1.7;;;;;;;;;;;;;
2024/02/25 05:32:00;;;;;;;3.5;1.6;;;;;;;;;;;;;
2024/02/25 05:34:25;;;;;;;1.6;1.5;;;;;;;;;;;;;
2024/02/25 05:36:50;;;;;;;1.7;1.5;;;;;;;;;;;;;
2024/02/25 05:39:16;;;;;;;1.8;1.7;;;;;;;;;;;;;
2024/02/25 05:41:41;;;;;;;1.9;1.6;;;;;;;;;;;;;
2024/02/25 05:44:06;;;;;;;2.3;1.7;;;;;;;;;;;;;
2024/02/25 05:46:31;;;;;;;6.9;3.6;;;;;;;;;;;;;
2024/02/25 05:48:56;;;;;;;4.9;2.7;;;;;;;;;;;;;
2024/02/25 05:51:21;;;;;;;3.4;2.5;;;;;;;;;;;;;
2024/02/25 05:53:47;;;;;;;4.5;2.4;;;;;;;;;;;;;
2024/02/25 05:56:11;;;;;;;2.3;2.1;;;;;;;;;;;;;
2024/02/25 05:58:36;;;;;;;2.7;2.1;;;;;;;;;;;;;
2024/02/25 06:01:01;;;;;;;3;2.1;;;;;;;;;;;;;
2024/02/25 06:03:27;;;;;;;2.7;1.8;;;;;;;;;;;;;
2024/02/25 06:05:56;;;;;;;3;2.2;;;;;;;;;;;;;
2024/02/25 06:08:17;;;;;;;4;2.4;;;;;;;;;;;;;
2024/02/25 06:10:42;;;;;;;3.2;2.2;;;;;;;;;;;;;
2024/02/25 06:13:07;;;;;;;2.6;2.1;;;;;;;;;;;;;
2024/02/25 06:15:32;;;;;;;3.3;2;;;;;;;;;;;;;
2024/02/25 06:17:57;;;;;;;3.6;2.3;;;;;;;;;;;;;
2024/02/25 06:20:22;;;;;;;2.8;1.8;;;;;;;;;;;;;
2024/02/25 06:22:48;;;;;;;3.1;2.6;;;;;;;;;;;;;
2024/02/25 06:25:13;;;;;;;1.8;1.6;;;;;;;;;;;;;
2024/02/25 06:27:39;;;;;;;1.7;1.5;;;;;;;;;;;;;
2024/02/25 06:30:04;;;;;;;1.6;1.5;;;;;;;;;;;;;
2024/02/25 06:32:28;;;;;;;3.4;1.7;;;;;;;;;;;;;
2024/02/25 06:34:53;;;;;;;2.3;1.9;;;;;;;;;;;;;
2024/02/25 06:37:18;;;;;;;2.5;1.9;;;;;;;;;;;;;
2024/02/25 06:39:43;;;;;;;1.8;1.5;;;;;;;;;;;;;
2024/02/25 06:42:09;;;;;;;1.9;1.6;;;;;;;;;;;;;
2024/02/25 06:44:34;;;;;;;2.9;1.8;;;;;;;;;;;;;
2024/02/25 06:46:59;;;;;;;3.1;2.2;;;;;;;;;;;;;
2024/02/25 06:49:27;;;;;;;2.8;1.8;;;;;;;;;;;;;
2024/02/25 06:51:49;;;;;;;2.2;1.9;;;;;;;;;;;;;
2024/02/25 06:54:14;;;;;;;4.1;2.8;;;;;;;;;;;;;
2024/02/25 06:56:39;;;;;;;3.6;2.6;;;;;;;;;;;;;
2024/02/25 06:59:04;;;;;;;4;2.7;;;;;;;;;;;;;
2024/02/25 07:01:30;;;;;;;4.4;3.7;;;;;;;;;;;;;
2024/02/25 07:03:55;;;;;;;6.3;3.9;;;;;;;;;;;;;
2024/02/25 07:06:20;;;;;;;5.5;3.1;;;;;;;;;;;;;
2024/02/25 07:08:45;;;;;;;3.8;2.8;;;;;;;;;;;;;
2024/02/25 07:11:10;;;;;;;3.9;2.8;;;;;;;;;;;;;
2024/02/25 07:13:35;;;;;;;3.3;2.4;;;;;;;;;;;;;
2024/02/25 07:16:00;;;;;;;3.4;2;;;;;;;;;;;;;
2024/02/25 07:18:25;;;;;;;4.2;2.6;;;;;;;;;;;;;
2024/02/25 07:20:50;;;;;;;4.8;2.6;;;;;;;;;;;;;
2024/02/25 07:23:15;;;;;;;3.3;2.9;;;;;;;;;;;;;
2024/02/25 07:25:40;;;;;;;3.7;2.6;;;;;;;;;;;;;
2024/02/25 07:28:06;;;;;;;4.2;2.7;;;;;;;;;;;;;
2024/02/25 07:30:31;;;;;;;4.5;2.8;;;;;;;;;;;;;
2024/02/25 07:32:56;;;;;;;5.3;3.1;;;;;;;;;;;;;
2024/02/25 07:35:21;;;;;;;5.9;3.4;;;;;;;;;;;;;
2024/02/25 07:37:46;;;;;;;6;4;;;;;;;;;;;;;
2024/02/25 07:40:11;;;;;;;7.4;4.1;;;;;;;;;;;;;
2024/02/25 07:42:36;;;;;;;4.4;3;;;;;;;;;;;;;
2024/02/25 07:45:01;;;;;;;3.3;2;;;;;;;;;;;;;
2024/02/25 07:47:26;;;;;;;1.8;1.5;;;;;;;;;;;;;
2024/02/25 07:49:51;;;;;;;1.3;1.2;;;;;;;;;;;;;
2024/02/25 07:52:17;;;;;;;2.1;1.3;;;;;;;;;;;;;
2024/02/25 07:54:42;;;;;;;1.3;1.1;;;;;;;;;;;;;
2024/02/25 07:57:08;;;;;;;1.8;1.1;;;;;;;;;;;;;
2024/02/25 07:59:32;;;;;;;1.3;1.2;;;;;;;;;;;;;
2024/02/25 08:01:58;;;;;;;1.2;1.1;;;;;;;;;;;;;
2024/02/25 08:04:22;;;;;;;1.7;1.3;;;;;;;;;;;;;
2024/02/25 08:06:47;;;;;;;1.5;1.4;;;;;;;;;;;;;
2024/02/25 08:09:12;;;;;;;1.8;1.5;;;;;;;;;;;;;
2024/02/25 08:11:37;;;;;;;2.1;1.4;;;;;;;;;;;;;
2024/02/25 08:14:03;;;;;;;1.3;1.2;;;;;;;;;;;;;
2024/02/25 08:16:31;;;;;;;2;1.5;;;;;;;;;;;;;
2024/02/25 08:18:53;;;;;;;1.5;1.4;;;;;;;;;;;;;
2024/02/25 08:21:18;;;;;;;2;1.5;;;;;;;;;;;;;
2024/02/25 08:23:44;;;;;;;1.6;1.3;;;;;;;;;;;;;
2024/02/25 08:26:08;;;;;;;1.4;1.2;;;;;;;;;;;;;
2024/02/25 08:28:33;;;;;;;1.6;1.5;;;;;;;;;;;;;
2024/02/25 08:30:59;;;;;;;1.2;1.1;;;;;;;;;;;;;
2024/02/25 08:33:24;;;;;;;1.8;1.1;;;;;;;;;;;;;
2024/02/25 08:35:49;;;;;;;1.1;1;;;;;;;;;;;;;
2024/02/25 08:38:14;;;;;;;1.7;1.3;;;;;;;;;;;;;
2024/02/25 08:40:39;;;;;;;1.5;1.1;;;;;;;;;;;;;
2024/02/25 08:43:04;;;;;;;1.1;1;;;;;;;;;;;;;
2024/02/25 08:45:30;;;;;;;1.1;1;;;;;;;;;;;;;
2024/02/25 08:47:55;;;;;;;1.5;1;;;;;;;;;;;;;
2024/02/25 08:50:20;;;;;;;1.3;1;;;;;;;;;;;;;
2024/02/25 08:52:45;;;;;;;1.7;1.2;;;;;;;;;;;;;
2024/02/25 08:55:10;;;;;;;1.3;1.1;;;;;;;;;;;;;
2024/02/25 08:57:35;;;;;;;1.3;0.9;;;;;;;;;;;;;
2024/02/25 09:00:00;;;;;;;1.4;1.2;;;;;;;;;;;;;
2024/02/25 09:02:25;;;;;;;1.1;1;;;;;;;;;;;;;
2024/02/25 09:04:51;;;;;;;1.9;1.3;;;;;;;;;;;;;
2024/02/25 09:07:17;;;;;;;0.9;0.8;;;;;;;;;;;;;
2024/02/25 09:09:40;;;;;;;1.4;1.2;;;;;;;;;;;;;
2024/02/25 09:12:05;;;;;;;2.7;0.9;;;;;;;;;;;;;
2024/02/25 09:14:31;;;;;;;0.5;0.5;;;;;;;;;;;;;
2024/02/25 09:16:56;;;;;;;1.3;0.8;;;;;;;;;;;;;
2024/02/25 09:19:21;;;;;;;2.3;0.8;;;;;;;;;;;;;
2024/02/25 09:21:48;;;;;;;2.5;0.9;;;;;;;;;;;;;
2024/02/25 09:24:11;;;;;;;0.7;0.7;;;;;;;;;;;;;
2024/02/25 09:26:36;;;;;;;2.3;1;;;;;;;;;;;;;
2024/02/25 09:29:01;;;;;;;2;0.8;;;;;;;;;;;;;
2024/02/25 09:31:26;;;;;;;1;0.9;;;;;;;;;;;;;
2024/02/25 09:33:54;;;;;;;0.9;0.8;;;;;;;;;;;;;
2024/02/25 09:36:22;;;;;;;1.3;0.6;;;;;;;;;;;;;
2024/02/25 09:38:41;;;;;;;5.4;1.1;;;;;;;;;;;;;
2024/02/25 09:41:08;;;;;;;0.7;0.7;;;;;;;;;;;;;
2024/02/25 09:43:32;;;;;;;1.3;1;;;;;;;;;;;;;
2024/02/25 09:45:57;;;;;;;1.6;0.8;;;;;;;;;;;;;
2024/02/25 09:48:22;;;;;;;1.4;0.7;;;;;;;;;;;;;
2024/02/25 09:50:47;;;;;;;1.7;0.6;;;;;;;;;;;;;
2024/02/25 09:53:12;;;;;;;1.8;0.6;;;;;;;;;;;;;
2024/02/25 09:55:37;;;;;;;0.4;0.4;;;;;;;;;;;;;
2024/02/25 09:58:02;;;;;;;0.9;0.7;;;;;;;;;;;;;
2024/02/25 10:00:27;;;;;;;0.5;0.5;;;;;;;;;;;;;
2024/02/25 10:02:52;;;;;;;0.5;0.4;;;;;;;;;;;;;
2024/02/25 10:05:19;;;;;;;0.6;0.5;;;;;;;;;;;;;
2024/02/25 10:07:43;;;;;;;1;0.6;;;;;;;;;;;;;
2024/02/25 10:10:08;;;;;;;0.6;0.6;;;;;;;;;;;;;
2024/02/25 10:12:33;;;;;;;1.4;0.8;;;;;;;;;;;;;
2024/02/25 10:14:58;;;;;;;0.6;0.6;;;;;;;;;;;;;
2024/02/25 10:17:23;;;;;;;1.1;0.7;;;;;;;;;;;;;
2024/02/25 10:19:48;;;;;;;3.3;2.3;;;;;;;;;;;;;
2024/02/25 10:22:14;;;;;;;6.5;2.3;;;;;;;;;;;;;
2024/02/25 10:24:40;;;;;;;1.7;0.5;;;;;;;;;;;;;
2024/02/25 10:27:03;;;;;;;1.4;0.5;;;;;;;;;;;;;
2024/02/25 10:29:28;;;;;;;0.5;0.4;;;;;;;;;;;;;
2024/02/25 10:31:53;;;;;;;0.5;0.5;;;;;;;;;;;;;
2024/02/25 10:34:19;;;;;;;0.6;0.6;;;;;;;;;;;;;
2024/02/25 10:36:44;;;;;;;1.2;0.6;;;;;;;;;;;;;
2024/02/25 10:39:09;;;;;;;1.1;0.7;;;;;;;;;;;;;
2024/02/25 10:41:34;;;;;;;0.8;0.5;;;;;;;;;;;;;
2024/02/25 10:43:59;;;;;;;0.9;0.6;;;;;;;;;;;;;
2024/02/25 10:46:24;;;;;;;0.7;0.5;;;;;;;;;;;;;
2024/02/25 10:48:49;;;;;;;2.4;0.7;;;;;;;;;;;;;
2024/02/25 10:51:14;;;;;;;2.1;0.5;;;;;;;;;;;;;
2024/02/25 10:53:41;;;;;;;0.5;0.5;;;;;;;;;;;;;
2024/02/25 10:56:05;;;;;;;0.7;0.5;;;;;;;;;;;;;
2024/02/25 10:58:30;;;;;;;0.8;0.6;;;;;;;;;;;;;
2024/02/25 11:00:56;;;;;;;0.3;0.3;;;;;;;;;;;;;
2024/02/25 11:03:21;;;;;;;1;0.6;;;;;;;;;;;;;
2024/02/25 11:05:45;;;;;;;1.5;0.4;;;;;;;;;;;;;
2024/02/25 11:08:11;;;;;;;0.5;0.4;;;;;;;;;;;;;
2024/02/25 11:10:37;;;;;;;0.2;0.2;;;;;;;;;;;;;
2024/02/25 11:13:01;;;;;;;0.4;0.4;;;;;;;;;;;;;
2024/02/25 11:15:28;;;;;;;0.4;0.4;;;;;;;;;;;;;
2024/02/25 11:17:55;;;;;;;1.4;0.4;;;;;;;;;;;;;
2024/02/25 11:20:16;;;;;;;0.4;0.3;;;;;;;;;;;;;
2024/02/25 11:22:41;;;;;;;0.5;0.4;;;;;;;;;;;;;
2024/02/25 11:25:06;;;;;;;0.5;0.4;;;;;;;;;;;;;
2024/02/25 11:27:31;;;;;;;1.2;0.4;;;;;;;;;;;;;
2024/02/25 11:29:56;;;;;;;1.2;0.5;;;;;;;;;;;;;
2024/02/25 11:32:22;;;;;;;0.5;0.4;;;;;;;;;;;;;
2024/02/25 11:34:47;;;;;;;0.5;0.3;;;;;;;;;;;;;
2024/02/25 11:37:13;;;;;;;0.6;0.5;;;;;;;;;;;;;
2024/02/25 11:39:37;;;;;;;1.3;0.9;;;;;;;;;;;;;
2024/02/25 11:42:02;;;;;;;0.3;0.3;;;;;;;;;;;;;
2024/02/25 11:44:27;;;;;;;1.5;0.9;;;;;;;;;;;;;
2024/02/25 11:46:52;;;;;;;0.9;0.8;;;;;;;;;;;;;
2024/02/25 11:49:17;;;;;;;2;0.7;;;;;;;;;;;;;
2024/02/25 11:51:42;;;;;;;1.3;0.5;;;;;;;;;;;;;
2024/02/25 11:54:07;;;;;;;0.4;0.4;;;;;;;;;;;;;
2024/02/25 11:56:33;;;;;;;0.2;0.2;;;;;;;;;;;;;
2024/02/25 11:58:57;;;;;;;0.7;0.4;;;;;;;;;;;;;
2024/02/25 12:01:23;;;;;;;0.9;0.5;;;;;;;;;;;;;
2024/02/25 12:03:48;;;;;;;0.5;0.5;;;;;;;;;;;;;
2024/02/25 12:06:13;;;;;;;3.3;0.7;;;;;;;;;;;;;
2024/02/25 12:08:40;;;;;;;0.3;0.3;;;;;;;;;;;;;
2024/02/25 12:11:04;;;;;;;0.4;0.4;;;;;;;;;;;;;
2024/02/25 12:13:28;;;;;;;1;0.8;;;;;;;;;;;;;
2024/02/25 12:15:53;;;;;;;0.4;0.4;;;;;;;;;;;;;
2024/02/25 12:18:19;;;;;;;0.8;0.3;;;;;;;;;;;;;
2024/02/25 12:20:44;;;;;;;0.6;0.3;;;;;;;;;;;;;
2024/02/25 12:23:10;;;;;;;0.2;0.2;;;;;;;;;;;;;
2024/02/25 12:25:34;;;;;;;0.3;0.3;;;;;;;;;;;;;
2024/02/25 12:27:59;;;;;;;1.3;0.5;;;;;;;;;;;;;
2024/02/25 12:30:24;;;;;;;0.7;0.4;;;;;;;;;;;;;
2024/02/25 12:32:50;;;;;;;0.5;0.2;;;;;;;;;;;;;
2024/02/25 12:35:17;;;;;;;0.3;0.1;;;;;;;;;;;;;
2024/02/25 12:37:40;;;;;;;2.3;0.6;;;;;;;;;;;;;
2024/02/25 12:40:05;;;;;;;0.3;0.2;;;;;;;;;;;;;
2024/02/25 12:42:30;;;;;;;0.4;0.4;;;;;;;;;;;;;
2024/02/25 12:44:55;;;;;;;0.2;0.2;;;;;;;;;;;;;
2024/02/25 12:47:20;;;;;;;0.7;0.3;;;;;;;;;;;;;
2024/02/25 12:49:45;;;;;;;1.4;0.3;;;;;;;;;;;;;
2024/02/25 12:52:11;;;;;;;0.4;0.3;;;;;;;;;;;;;
2024/02/25 12:54:36;;;;;;;0.3;0.3;;;;;;;;;;;;;
2024/02/25 12:57:01;;;;;;;0.4;0.3;;;;;;;;;;;;;
2024/02/25 12:59:26;;;;;;;0.3;0.3;;;;;;;;;;;;;
2024/02/25 13:01:51;;;;;;;0.3;0.3;;;;;;;;;;;;;
2024/02/25 13:04:16;;;;;;;0.3;0.3;;;;;;;;;;;;;
2024/02/25 13:06:41;;;;;;;7.1;3.8;;;;;;;;;;;;;
2024/02/25 13:09:07;;;;;;;1.4;0.9;;;;;;;;;;;;;
2024/02/25 13:11:32;;;;;;;2.2;0.6;;;;;;;;;;;;;
2024/02/25 13:13:57;;;;;;;0.9;0.4;;;;;;;;;;;;;
2024/02/25 13:16:22;;;;;;;1.1;0.5;;;;;;;;;;;;;
2024/02/25 13:18:47;;;;;;;0.3;0.3;;;;;;;;;;;;;
2024/02/25 13:21:12;;;;;;;0.4;0.4;;;;;;;;;;;;;
2024/02/25 13:23:37;;;;;;;1;0.4;;;;;;;;;;;;;
2024/02/25 13:26:03;;;;;;;1.1;0.3;;;;;;;;;;;;;
2024/02/25 13:28:28;;;;;;;0.2;0.2;;;;;;;;;;;;;
2024/02/25 13:30:53;;;;;;;0.5;0.5;;;;;;;;;;;;;
2024/02/25 13:33:20;;;;;;;0.3;0.3;;;;;;;;;;;;;
2024/02/25 13:35:43;;;;;;;0.8;0.4;;;;;;;;;;;;;
2024/02/25 13:38:08;;;;;;;0.2;0.2;;;;;;;;;;;;;
2024/02/25 13:40:33;;;;;;;0.2;0.2;;;;;;;;;;;;;
2024/02/25 13:42:59;;;;;;;0.5;0.5;;;;;;;;;;;;;
2024/02/25 13:45:23;;;;;;;0.4;0.3;;;;;;;;;;;;;
2024/02/25 13:47:48;;;;;;;0.3;0.3;;;;;;;;;;;;;
2024/02/25 13:50:14;;;;;;;0.3;0.3;;;;;;;;;;;;;
2024/02/25 13:52:39;;;;;;;0.4;0.4;;;;;;;;;;;;;
2024/02/25 13:55:04;;;;;;;0.8;0.3;;;;;;;;;;;;;
2024/02/25 13:57:29;;;;;;;0.4;0.4;;;;;;;;;;;;;
2024/02/25 13:59:54;;;;;;;0.3;0.3;;;;;;;;;;;;;
2024/02/25 14:02:21;;;;;;;0.4;0.3;;;;;;;;;;;;;
2024/02/25 14:04:44;;;;;;;0.2;0.2;;;;;;;;;;;;;
2024/02/25 14:07:10;;;;;;;0.3;0.3;;;;;;;;;;;;;
2024/02/25 14:09:35;;;;;;;0.3;0.3;;;;;;;;;;;;;
2024/02/25 14:12:00;;;;;;;0.3;0.3;;;;;;;;;;;;;
2024/02/25 14:14:25;;;;;;;0.4;0.4;;;;;;;;;;;;;
2024/02/25 14:16:50;;;;;;;0.3;0.3;;;;;;;;;;;;;
2024/02/25 14:19:15;;;;;;;0.3;0.3;;;;;;;;;;;;;
2024/02/25 14:21:40;;;;;;;0.9;0.4;;;;;;;;;;;;;
2024/02/25 14:24:06;;;;;;;0.3;0.3;;;;;;;;;;;;;
2024/02/25 14:26:31;;;;;;;1.2;0.4;;;;;;;;;;;;;
2024/02/25 14:28:56;;;;;;;0.4;0.3;;;;;;;;;;;;;
2024/02/25 14:31:21;;;;;;;0.3;0.3;;;;;;;;;;;;;
2024/02/25 14:33:48;;;;;;;0.6;0.3;;;;;;;;;;;;;
2024/02/25 14:36:11;;;;;;;0.5;0.5;;;;;;;;;;;;;
2024/02/25 14:38:36;;;;;;;0.4;0.4;;;;;;;;;;;;;
2024/02/25 14:41:02;;;;;;;0.2;0.2;;;;;;;;;;;;;
2024/02/25 14:43:26;;;;;;;0.4;0.4;;;;;;;;;;;;;
2024/02/25 14:45:52;;;;;;;0.3;0.3;;;;;;;;;;;;;
2024/02/25 14:48:17;;;;;;;0.8;0.4;;;;;;;;;;;;;
2024/02/25 14:50:42;;;;;;;0.3;0.3;;;;;;;;;;;;;
2024/02/25 14:53:07;;;;;;;0.5;0.5;;;;;;;;;;;;;
2024/02/25 14:55:32;;;;;;;0.4;0.4;;;;;;;;;;;;;
2024/02/25 14:57:57;;;;;;;0.8;0.6;;;;;;;;;;;;;
2024/02/25 15:00:23;;;;;;;0.4;0.4;;;;;;;;;;;;;
2024/02/25 15:02:52;;;;;;;0.5;0.5;;;;;;;;;;;;;
2024/02/25 15:05:13;;;;;;;0.5;0.4;;;;;;;;;;;;;
2024/02/25 15:07:40;;;;;;;0.5;0.3;;;;;;;;;;;;;
2024/02/25 15:10:03;;;;;;;0.2;0.2;;;;;;;;;;;;;
2024/02/25 15:12:28;;;;;;;0.8;0.7;;;;;;;;;;;;;
2024/02/25 15:14:55;;;;;;;1.1;0.5;;;;;;;;;;;;;
2024/02/25 15:17:18;;;;;;;0.8;0.7;;;;;;;;;;;;;
2024/02/25 15:19:44;;;;;;;1.5;0.6;;;;;;;;;;;;;
2024/02/25 15:22:09;;;;;;;2.1;1.1;;;;;;;;;;;;;
2024/02/25 15:24:35;;;;;;;1.3;1;;;;;;;;;;;;;
2024/02/25 15:26:59;;;;;;;0.8;0.8;;;;;;;;;;;;;
2024/02/25 15:29:24;;;;;;;0.8;0.7;;;;;;;;;;;;;
2024/02/25 15:31:50;;;;;;;1;0.6;;;;;;;;;;;;;
2024/02/25 15:34:15;;;;;;;2.5;0.8;;;;;;;;;;;;;
2024/02/25 15:36:45;;;;;;;0.9;0.4;;;;;;;;;;;;;
2024/02/25 15:39:05;;;;;;;1;0.4;;;;;;;;;;;;;
2024/02/25 15:41:30;;;;;;;0.5;0.3;;;;;;;;;;;;;
2024/02/25 15:43:55;;;;;;;0.4;0.4;;;;;;;;;;;;;
2024/02/25 15:46:20;;;;;;;0.5;0.5;;;;;;;;;;;;;
2024/02/25 15:48:45;;;;;;;3.4;0.9;;;;;;;;;;;;;
2024/02/25 15:51:10;;;;;;;2.3;1;;;;;;;;;;;;;
2024/02/25 15:53:35;;;;;;;1.3;0.9;;;;;;;;;;;;;
2024/02/25 15:56:01;;;;;;;2.3;1.6;;;;;;;;;;;;;
2024/02/25 15:58:26;;;;;;;1.9;1.2;;;;;;;;;;;;;
2024/02/25 16:00:51;;;;;;;0.6;0.6;;;;;;;;;;;;;
2024/02/25 16:03:18;;;;;;;1.8;1.1;;;;;;;;;;;;;
2024/02/25 16:05:41;;;;;;;3.2;1.5;;;;;;;;;;;;;
2024/02/25 16:08:07;;;;;;;1.4;1.1;;;;;;;;;;;;;
2024/02/25 16:10:32;;;;;;;1.3;0.6;;;;;;;;;;;;;
2024/02/25 16:12:56;;;;;;;4;0.7;;;;;;;;;;;;;
2024/02/25 16:15:21;;;;;;;1.2;0.9;;;;;;;;;;;;;
2024/02/25 16:17:46;;;;;;;7.4;3.4;;;;;;;;;;;;;
2024/02/25 16:20:12;;;;;;;12.1;4.6;;;;;;;;;;;;;
2024/02/25 16:22:37;;;;;;;2.4;1.5;;;;;;;;;;;;;
2024/02/25 16:25:02;;;;;;;3.1;1.1;;;;;;;;;;;;;
2024/02/25 16:27:27;;;;;;;2.7;1.3;;;;;;;;;;;;;
2024/02/25 16:29:52;;;;;;;1.8;1.3;;;;;;;;;;;;;
2024/02/25 16:32:20;;;;;;;2.6;1.2;;;;;;;;;;;;;
2024/02/25 16:34:42;;;;;;;3.1;1.2;;;;;;;;;;;;;
2024/02/25 16:37:07;;;;;;;4.3;1.4;;;;;;;;;;;;;
2024/02/25 16:39:33;;;;;;;1.8;0.9;;;;;;;;;;;;;
2024/02/25 16:41:57;;;;;;;1.7;1.2;;;;;;;;;;;;;
2024/02/25 16:44:23;;;;;;;2;1.6;;;;;;;;;;;;;
2024/02/25 16:46:48;;;;;;;2;1.1;;;;;;;;;;;;;
2024/02/25 16:49:15;;;;;;;3.2;1.8;;;;;;;;;;;;;
2024/02/25 16:51:38;;;;;;;1.9;1;;;;;;;;;;;;;
2024/02/25 16:54:03;;;;;;;1.2;0.9;;;;;;;;;;;;;
2024/02/25 16:56:28;;;;;;;1.2;1;;;;;;;;;;;;;
2024/02/25 16:58:53;;;;;;;4.2;2.3;;;;;;;;;;;;;
2024/02/25 17:01:18;;;;;;;4.2;2.6;;;;;;;;;;;;;
2024/02/25 17:03:43;;;;;;;5.2;3.2;;;;;;;;;;;;;
2024/02/25 17:06:08;;;;;;;8;4.3;;;;;;;;;;;;;
2024/02/25 17:08:35;;;;;;;4.7;2.7;;;;;;;;;;;;;
2024/02/25 17:10:59;;;;;;;4.4;2.4;;;;;;;;;;;;;
2024/02/25 17:13:24;;;;;;;8.6;4.8;;;;;;;;;;;;;
2024/02/25 17:15:49;;;;;;;5.8;3.3;;;;;;;;;;;;;
2024/02/25 17:18:16;;;;;;;7.4;3;;;;;;;;;;;;;
2024/02/25 17:20:39;;;;;;;9.1;4.7;;;;;;;;;;;;;
2024/02/25 17:23:04;;;;;;;11.7;4.2;;;;;;;;;;;;;
2024/02/25 17:25:29;;;;;;;7.3;4.3;;;;;;;;;;;;;
2024/02/25 17:27:55;;;;;;;6.2;4.3;;;;;;;;;;;;;
2024/02/25 17:30:20;;;;;;;5.6;3.6;;;;;;;;;;;;;
2024/02/25 17:32:46;;;;;;;7.2;4.6;;;;;;;;;;;;;
2024/02/25 17:35:10;;;;;;;16.2;8.6;;;;;;;;;;;;;
2024/02/25 17:37:35;;;;;;;11.7;6.8;;;;;;;;;;;;;
2024/02/25 17:40:01;;;;;;;8.9;5.4;;;;;;;;;;;;;
2024/02/25 17:42:25;;;;;;;12.3;7.5;;;;;;;;;;;;;
2024/02/25 17:44:50;;;;;;;20.2;8.6;;;;;;;;;;;;;
2024/02/25 17:47:15;;;;;;;13;7.7;;;;;;;;;;;;;
2024/02/25 17:49:41;;;;;;;11.2;5.9;;;;;;;;;;;;;
2024/02/25 17:52:06;;;;;;;8.3;5.1;;;;;;;;;;;;;
2024/02/25 17:54:31;;;;;;;8.7;4.6;;;;;;;;;;;;;
2024/02/25 17:56:56;;;;;;;9;5.8;;;;;;;;;;;;;
2024/02/25 17:59:21;;;;;;;10.7;6.1;;;;;;;;;;;;;
2024/02/25 18:01:47;;;;;;;10.1;6.5;;;;;;;;;;;;;
2024/02/25 18:04:12;;;;;;;10.2;6.4;;;;;;;;;;;;;
2024/02/25 18:06:36;;;;;;;17.1;13.2;;;;;;;;;;;;;
2024/02/25 18:09:05;;;;;;;14.7;8.3;;;;;;;;;;;;;
2024/02/25 18:11:27;;;;;;;11.3;7.5;;;;;;;;;;;;;
2024/02/25 18:13:52;;;;;;;9.7;7.8;;;;;;;;;;;;;
2024/02/25 18:16:17;;;;;;;10.4;9.4;;;;;;;;;;;;;
2024/02/25 18:18:42;;;;;;;12.2;8.6;;;;;;;;;;;;;
2024/02/25 18:21:07;;;;;;;6.7;4.3;;;;;;;;;;;;;
2024/02/25 18:23:32;;;;;;;10.9;5.7;;;;;;;;;;;;;
2024/02/25 18:25:58;;;;;;;7.5;4.6;;;;;;;;;;;;;
2024/02/25 18:28:23;;;;;;;27.2;19.1;;;;;;;;;;;;;
2024/02/25 18:30:48;;;;;;;12.4;8;;;;;;;;;;;;;
2024/02/25 18:33:14;;;;;;;13.2;7.7;;;;;;;;;;;;;
2024/02/25 18:35:38;;;;;;;11.5;7.5;;;;;;;;;;;;;
2024/02/25 18:38:04;;;;;;;11.2;9.6;;;;;;;;;;;;;
2024/02/25 18:40:30;;;;;;;10;6.6;;;;;;;;;;;;;
2024/02/25 18:42:54;;;;;;;11.5;6.8;;;;;;;;;;;;;
2024/02/25 18:45:18;;;;;;;17;10.2;;;;;;;;;;;;;
2024/02/25 18:47:44;;;;;;;15.5;10.4;;;;;;;;;;;;;
2024/02/25 18:50:09;;;;;;;17.3;9.8;;;;;;;;;;;;;
2024/02/25 18:52:34;;;;;;;9.9;6.2;;;;;;;;;;;;;
2024/02/25 18:55:00;;;;;;;8.6;5;;;;;;;;;;;;;
2024/02/25 18:57:25;;;;;;;12.2;7.6;;;;;;;;;;;;;
2024/02/25 18:59:49;;;;;;;6.9;4.9;;;;;;;;;;;;;
2024/02/25 19:02:15;;;;;;;9.3;5.2;;;;;;;;;;;;;
2024/02/25 19:04:40;;;;;;;10.6;5.9;;;;;;;;;;;;;
2024/02/25 19:07:04;;;;;;;16.1;9.6;;;;;;;;;;;;;
2024/02/25 19:09:30;;;;;;;15.4;9.8;;;;;;;;;;;;;
2024/02/25 19:11:55;;;;;;;49.8;24.6;;;;;;;;;;;;;
2024/02/25 19:14:21;;;;;;;43.2;21.6;;;;;;;;;;;;;
2024/02/25 19:16:45;;;;;;;17.6;9.5;;;;;;;;;;;;;
2024/02/25 19:19:10;;;;;;;30.7;14;;;;;;;;;;;;;
2024/02/25 19:21:36;;;;;;;32.9;15;;;;;;;;;;;;;
2024/02/25 19:24:00;;;;;;;29.2;15;;;;;;;;;;;;;
2024/02/25 19:26:26;;;;;;;21.1;10.8;;;;;;;;;;;;;
2024/02/25 19:28:50;;;;;;;15.7;8.8;;;;;;;;;;;;;
2024/02/25 19:31:16;;;;;;;17.6;10.1;;;;;;;;;;;;;
2024/02/25 19:33:41;;;;;;;19;10.7;;;;;;;;;;;;;
2024/02/25 19:36:06;;;;;;;9.9;6.1;;;;;;;;;;;;;
2024/02/25 19:38:31;;;;;;;10.5;6.8;;;;;;;;;;;;;
2024/02/25 19:40:56;;;;;;;11.9;8.7;;;;;;;;;;;;;
2024/02/25 19:43:21;;;;;;;11.4;6.9;;;;;;;;;;;;;
2024/02/25 19:45:46;;;;;;;16.8;8.9;;;;;;;;;;;;;
2024/02/25 19:48:11;;;;;;;13;7.6;;;;;;;;;;;;;
2024/02/25 19:50:37;;;;;;;18;8.8;;;;;;;;;;;;;
2024/02/25 19:53:02;;;;;;;14.5;7.4;;;;;;;;;;;;;
2024/02/25 19:55:27;;;;;;;32.9;15.9;;;;;;;;;;;;;
2024/02/25 19:57:52;;;;;;;33.6;16;;;;;;;;;;;;;
2024/02/25 20:00:18;;;;;;;33.6;15;;;;;;;;;;;;;
2024/02/25 20:02:42;;;;;;;11.2;6.3;;;;;;;;;;;;;
2024/02/25 20:05:10;;;;;;;89.2;39.5;;;;;;;;;;;;;
2024/02/25 20:07:33;;;;;;;16.5;8.7;;;;;;;;;;;;;
2024/02/25 20:09:58;;;;;;;8.3;4.9;;;;;;;;;;;;;
2024/02/25 20:12:23;;;;;;;8.3;4.8;;;;;;;;;;;;;
2024/02/25 20:14:48;;;;;;;8;4.5;;;;;;;;;;;;;
2024/02/25 20:17:14;;;;;;;4.6;3.6;;;;;;;;;;;;;
2024/02/25 20:19:38;;;;;;;9;5.5;;;;;;;;;;;;;
2024/02/25 20:22:03;;;;;;;9.2;5;;;;;;;;;;;;;
2024/02/25 20:24:30;;;;;;;7.6;4.8;;;;;;;;;;;;;
2024/02/25 20:26:54;;;;;;;6.6;4;;;;;;;;;;;;;
2024/02/25 20:29:19;;;;;;;5.5;3.5;;;;;;;;;;;;;